Time;durP1;ratioP1;P1;durP2;ratioP2;P2;SDS_P1;SDS_P2;PMS_P1;PMS_P2;Temp;Humidity;BMP_temperature;BMP_pressure;BME280_temperature;BME280_humidity;BME280_pressure;Samples;Min_cycle;Max_cycle;Signal;HPM_P1;HPM_P2
2021/07/27 00:01:07;;;;;;;6.97;5.78;;;20.00;99.90;;;;;;5074635;28;20744;-64
2021/07/27 00:03:36;;;;;;;7.15;5.75;;;20.00;99.90;;;;;;5074928;28;20200;-64
2021/07/27 00:06:05;;;;;;;6.38;5.78;;;20.00;99.90;;;;;;5074707;28;20225;-64
2021/07/27 00:08:35;;;;;;;6.20;5.60;;;19.90;99.90;;;;;;5074530;28;20295;-64
2021/07/27 00:11:03;;;;;;;6.95;6.05;;;19.90;99.90;;;;;;5074806;28;20218;-65
2021/07/27 00:13:33;;;;;;;6.93;5.55;;;19.90;99.90;;;;;;5074615;28;20237;-64
2021/07/27 00:16:01;;;;;;;6.72;5.80;;;19.80;99.90;;;;;;5074378;28;20291;-64
2021/07/27 00:18:30;;;;;;;6.50;5.43;;;19.80;99.90;;;;;;5074724;28;20279;-64
2021/07/27 00:20:58;;;;;;;7.00;5.68;;;19.70;99.90;;;;;;5074193;28;20611;-64
2021/07/27 00:23:26;;;;;;;6.53;5.88;;;19.60;99.90;;;;;;5074504;28;20284;-64
2021/07/27 00:25:54;;;;;;;6.35;5.75;;;19.60;99.90;;;;;;5074186;28;20209;-64
2021/07/27 00:28:22;;;;;;;6.20;5.60;;;19.60;99.90;;;;;;5074007;28;20797;-64
2021/07/27 00:30:51;;;;;;;6.35;5.75;;;19.60;99.90;;;;;;5074358;28;20284;-65
2021/07/27 00:33:19;;;;;;;6.70;6.00;;;19.50;99.90;;;;;;5074091;28;20746;-64
2021/07/27 00:35:47;;;;;;;6.40;5.78;;;19.60;99.90;;;;;;5074269;28;20283;-64
2021/07/27 00:38:19;;;;;;;6.75;5.90;;;19.50;99.90;;;;;;5073831;28;20537;-63
2021/07/27 00:40:48;;;;;;;7.00;5.95;;;19.40;99.90;;;;;;5074272;28;20187;-65
2021/07/27 00:43:17;;;;;;;6.25;5.65;;;19.40;99.90;;;;;;5073522;28;20627;-65
2021/07/27 00:45:45;;;;;;;6.65;5.20;;;19.50;99.90;;;;;;5072916;28;20204;-65
2021/07/27 00:48:15;;;;;;;6.45;5.72;;;19.40;99.90;;;;;;5074149;28;20200;-64
2021/07/27 00:50:42;;;;;;;7.10;5.20;;;19.40;99.90;;;;;;5073875;28;20236;-65
2021/07/27 00:53:10;;;;;;;5.70;5.13;;;19.40;99.90;;;;;;5073513;28;20196;-64
2021/07/27 00:55:40;;;;;;;6.32;4.97;;;19.40;99.90;;;;;;5073952;28;20196;-64
2021/07/27 00:58:08;;;;;;;6.43;5.50;;;19.40;99.90;;;;;;5073659;28;20300;-64
2021/07/27 01:00:36;;;;;;;5.68;4.95;;;19.30;99.90;;;;;;5073834;28;20291;-65
2021/07/27 01:03:04;;;;;;;7.70;5.20;;;19.30;99.90;;;;;;5073843;28;20300;-64
2021/07/27 01:05:33;;;;;;;6.00;5.40;;;19.30;99.90;;;;;;5073348;28;20657;-65
2021/07/27 01:08:02;;;;;;;5.75;5.22;;;19.20;99.90;;;;;;5073684;28;20196;-65
2021/07/27 01:10:30;;;;;;;6.03;5.43;;;19.20;99.90;;;;;;5073679;28;20236;-64
2021/07/27 01:12:57;;;;;;;5.72;5.22;;;19.30;99.90;;;;;;5073171;28;20207;-64
2021/07/27 01:15:25;;;;;;;8.15;5.38;;;19.30;99.90;;;;;;5073394;28;20201;-64
2021/07/27 01:18:01;;;;;;;6.75;5.90;;;19.20;99.90;;;;;;5073409;28;20213;-64
2021/07/27 01:20:35;;;;;;;6.00;5.40;;;19.20;99.90;;;;;;5073009;28;20660;-65
2021/07/27 01:39:40;;;;;;;5.85;5.25;;;19.10;99.90;;;;;;5073027;28;20184;-64
2021/07/27 01:42:09;;;;;;;6.90;5.22;;;19.10;99.90;;;;;;5073016;28;20608;-64
2021/07/27 01:44:43;;;;;;;5.78;5.10;;;19.00;99.90;;;;;;5072448;28;20327;-65
2021/07/27 01:47:13;;;;;;;8.25;5.90;;;19.00;99.90;;;;;;5073134;28;20208;-64
2021/07/27 01:49:42;;;;;;;6.65;5.55;;;19.00;99.90;;;;;;5073190;28;20558;-64
2021/07/27 01:52:13;;;;;;;6.25;5.25;;;18.90;99.90;;;;;;5072532;28;20228;-64
2021/07/27 01:54:54;;;;;;;6.45;5.85;;;18.90;99.90;;;;;;5072396;28;20645;-66
2021/07/27 01:57:24;;;;;;;7.55;5.53;;;18.90;99.90;;;;;;5072216;28;20551;-65
2021/07/27 02:00:09;;;;;;;5.82;5.32;;;18.80;99.90;;;;;;5072746;28;20293;-63
2021/07/27 02:02:37;;;;;;;6.53;5.82;;;18.80;99.90;;;;;;5072797;28;20192;-64
2021/07/27 02:05:10;;;;;;;7.20;5.70;;;18.80;99.90;;;;;;5072795;28;20254;-66
2021/07/27 02:07:38;;;;;;;9.35;5.97;;;18.70;99.90;;;;;;5072677;28;20181;-64
2021/07/27 02:10:13;;;;;;;6.60;5.88;;;18.60;99.90;;;;;;5072495;28;20204;-64
2021/07/27 02:12:50;;;;;;;9.88;5.57;;;18.60;99.90;;;;;;5072505;28;20633;-64
2021/07/27 02:15:20;;;;;;;7.70;5.15;;;18.70;99.90;;;;;;5072603;28;20271;-65
2021/07/27 02:17:48;;;;;;;6.60;5.40;;;18.80;99.90;;;;;;5072605;28;20282;-65
2021/07/27 02:20:17;;;;;;;6.47;5.80;;;18.80;99.90;;;;;;5072535;28;20292;-65
2021/07/27 02:22:45;;;;;;;6.32;5.72;;;18.70;99.90;;;;;;5072622;28;20204;-65
2021/07/27 02:25:14;;;;;;;6.80;6.10;;;18.80;99.90;;;;;;5071954;28;20291;-65
2021/07/27 02:27:42;;;;;;;6.18;5.57;;;18.70;99.90;;;;;;5072418;28;20288;-66
2021/07/27 02:30:11;;;;;;;6.70;5.82;;;18.70;99.90;;;;;;5072022;28;20683;-64
2021/07/27 02:32:38;;;;;;;6.43;5.78;;;18.60;99.90;;;;;;5072555;28;20201;-64
2021/07/27 02:35:08;;;;;;;6.00;5.45;;;18.60;99.90;;;;;;5072495;28;20562;-65
2021/07/27 02:37:37;;;;;;;6.13;5.53;;;18.60;99.90;;;;;;5071874;28;20248;-64
2021/07/27 02:40:06;;;;;;;7.53;6.18;;;18.60;99.90;;;;;;5072332;28;20303;-65
2021/07/27 02:42:36;;;;;;;6.95;6.25;;;18.60;99.90;;;;;;5072258;28;20295;-64
2021/07/27 02:45:05;;;;;;;6.28;5.68;;;18.70;99.90;;;;;;5071713;28;20228;-64
2021/07/27 02:47:34;;;;;;;6.78;5.95;;;18.80;99.90;;;;;;5072290;28;20553;-63
2021/07/27 02:50:02;;;;;;;6.97;5.72;;;18.80;99.90;;;;;;5072016;28;20667;-65
2021/07/27 02:52:32;;;;;;;6.57;5.55;;;18.60;99.90;;;;;;5071740;28;20287;-64
2021/07/27 02:55:00;;;;;;;7.30;6.40;;;18.60;99.90;;;;;;5072078;28;20231;-64
2021/07/27 02:57:28;;;;;;;7.07;5.80;;;18.50;99.90;;;;;;5072062;28;20235;-64
2021/07/27 03:00:00;;;;;;;8.15;5.72;;;18.40;99.90;;;;;;5071931;28;20628;-66
2021/07/27 03:02:30;;;;;;;7.35;5.55;;;18.30;99.90;;;;;;5071845;28;20664;-64
2021/07/27 03:04:58;;;;;;;6.65;5.75;;;18.30;99.90;;;;;;5072005;28;20196;-64
2021/07/27 03:07:35;;;;;;;6.43;5.82;;;18.30;99.90;;;;;;5072014;28;20201;-64
2021/07/27 03:10:18;;;;;;;6.82;5.75;;;18.30;99.90;;;;;;5076057;28;20563;-65
2021/07/27 03:12:47;;;;;;;6.25;5.65;;;18.30;99.90;;;;;;5075910;28;20184;-64
2021/07/27 03:15:16;;;;;;;5.57;5.03;;;18.30;99.90;;;;;;5075793;28;20208;-65
2021/07/27 03:17:45;;;;;;;7.80;5.70;;;18.30;99.90;;;;;;5075861;28;20303;-65
2021/07/27 03:20:15;;;;;;;6.28;5.63;;;18.30;99.90;;;;;;5075755;28;20205;-65
2021/07/27 03:22:43;;;;;;;7.07;5.97;;;18.30;99.90;;;;;;5075905;28;20188;-64
2021/07/27 03:25:15;;;;;;;6.38;5.78;;;18.30;99.90;;;;;;5075830;28;20196;-64
2021/07/27 03:27:44;;;;;;;6.70;6.00;;;18.20;99.90;;;;;;5075698;28;20185;-65
2021/07/27 03:30:12;;;;;;;6.90;5.78;;;18.20;99.90;;;;;;5075167;28;20292;-64
2021/07/27 03:32:42;;;;;;;6.50;5.90;;;18.20;99.90;;;;;;5075324;28;20635;-65
2021/07/27 03:35:12;;;;;;;7.20;5.57;;;18.20;99.90;;;;;;5075500;28;20208;-65
2021/07/27 03:37:40;;;;;;;7.57;5.40;;;18.10;99.90;;;;;;5075048;28;20657;-65
2021/07/27 03:40:08;;;;;;;6.38;5.75;;;18.10;99.90;;;;;;5075497;28;20201;-65
2021/07/27 03:42:37;;;;;;;6.68;5.97;;;18.10;99.90;;;;;;5075370;28;20259;-67
2021/07/27 03:45:05;;;;;;;6.95;5.57;;;18.20;99.90;;;;;;5074886;28;20236;-64
2021/07/27 03:47:33;;;;;;;7.78;5.88;;;18.30;99.90;;;;;;5075325;28;20668;-64
2021/07/27 03:50:03;;;;;;;7.10;6.43;;;18.30;99.90;;;;;;5075247;28;20193;-65
2021/07/27 03:52:30;;;;;;;7.07;6.30;;;18.30;99.90;;;;;;5074961;28;20200;-65
2021/07/27 03:54:58;;;;;;;6.00;5.40;;;18.40;99.90;;;;;;5075005;28;20193;-64
2021/07/27 03:57:26;;;;;;;9.60;5.82;;;18.40;99.90;;;;;;5075009;28;20255;-63
2021/07/27 03:59:54;;;;;;;5.93;5.35;;;18.40;99.90;;;;;;5074903;28;20312;-64
2021/07/27 04:02:22;;;;;;;6.75;5.85;;;18.40;99.90;;;;;;5074849;28;20211;-64
2021/07/27 04:04:50;;;;;;;5.90;5.30;;;18.40;99.90;;;;;;5075109;28;20197;-66
2021/07/27 04:07:19;;;;;;;5.93;5.32;;;18.40;99.90;;;;;;5078783;28;20238;-65
2021/07/27 04:09:47;;;;;;;8.00;5.50;;;18.50;99.90;;;;;;5080202;28;20280;-64
2021/07/27 04:12:15;;;;;;;6.10;5.50;;;18.50;99.90;;;;;;5079945;28;20785;-65
2021/07/27 04:14:43;;;;;;;7.35;5.68;;;18.50;99.90;;;;;;5076547;28;20548;-66
2021/07/27 04:17:10;;;;;;;5.88;5.28;;;18.70;99.90;;;;;;5076326;28;20232;-64
2021/07/27 04:19:38;;;;;;;7.78;5.75;;;18.80;99.90;;;;;;5074742;28;20684;-65
2021/07/27 04:22:06;;;;;;;5.70;5.20;;;18.70;99.90;;;;;;5074661;28;20211;-65
2021/07/27 04:24:35;;;;;;;7.18;5.53;;;18.70;99.90;;;;;;5075016;28;20295;-65
2021/07/27 04:27:04;;;;;;;5.97;5.38;;;18.70;99.90;;;;;;5075031;28;20207;-65
2021/07/27 04:29:32;;;;;;;6.25;5.65;;;18.80;99.90;;;;;;5074210;28;20207;-63
2021/07/27 04:31:59;;;;;;;6.50;5.90;;;19.00;99.90;;;;;;5074210;28;20292;-65
2021/07/27 04:34:27;;;;;;;8.05;6.43;;;18.90;99.90;;;;;;5074423;28;20239;-64
2021/07/27 04:36:55;;;;;;;8.68;5.63;;;18.90;99.90;;;;;;5073907;28;20201;-64
2021/07/27 04:39:23;;;;;;;5.75;5.22;;;19.00;99.90;;;;;;5073999;28;20216;-64
2021/07/27 04:41:53;;;;;;;6.25;5.57;;;19.00;99.90;;;;;;5074268;28;20197;-65
2021/07/27 04:44:20;;;;;;;5.95;5.30;;;19.00;99.90;;;;;;5073732;28;20234;-64
2021/07/27 04:46:48;;;;;;;5.93;5.28;;;19.00;99.90;;;;;;5073920;28;20211;-65
2021/07/27 04:49:16;;;;;;;6.30;5.55;;;19.00;99.90;;;;;;5074169;28;20193;-64
2021/07/27 04:51:44;;;;;;;5.63;5.03;;;19.10;99.90;;;;;;5074247;28;20201;-64
2021/07/27 04:54:15;;;;;;;5.95;5.30;;;19.20;99.90;;;;;;5074478;28;20197;-64
2021/07/27 04:56:43;;;;;;;5.32;4.82;;;19.20;99.90;;;;;;5074086;28;20612;-64
2021/07/27 04:59:12;;;;;;;8.50;5.93;;;19.30;99.90;;;;;;5074062;28;20228;-64
2021/07/27 05:01:41;;;;;;;6.32;5.65;;;19.30;99.90;;;;;;5074116;28;20645;-66
2021/07/27 05:04:09;;;;;;;6.20;5.60;;;19.60;99.90;;;;;;5074485;28;20197;-64
2021/07/27 05:06:38;;;;;;;6.97;5.50;;;20.40;99.90;;;;;;5073964;28;20649;-65
2021/07/27 05:09:06;;;;;;;9.05;4.75;;;21.50;99.90;;;;;;5074112;28;20205;-64
2021/07/27 05:11:34;;;;;;;6.97;5.00;;;22.70;99.90;;;;;;5074057;28;20558;-65
2021/07/27 05:14:02;;;;;;;6.85;4.93;;;23.80;99.90;;;;;;5074120;28;20200;-63
2021/07/27 05:16:32;;;;;;;5.60;4.95;;;24.40;99.90;;;;;;5073949;28;20683;-64
2021/07/27 05:19:22;;;;;;;5.03;4.50;;;24.90;99.90;;;;;;5073754;28;20747;-65
2021/07/27 05:21:54;;;;;;;6.47;4.78;;;25.20;99.90;;;;;;5074027;28;20272;-65
2021/07/27 05:24:25;;;;;;;6.93;4.78;;;25.60;99.90;;;;;;5074116;28;20185;-64
2021/07/27 05:26:53;;;;;;;6.50;4.80;;;25.30;99.90;;;;;;5073602;28;20709;-65
2021/07/27 05:29:20;;;;;;;5.63;5.07;;;25.30;99.90;;;;;;5073548;28;20277;-65
2021/07/27 05:31:50;;;;;;;5.70;4.72;;;24.80;99.90;;;;;;5073176;28;20204;-65
2021/07/27 05:34:18;;;;;;;5.65;5.05;;;24.30;99.90;;;;;;5073772;28;20206;-64
2021/07/27 05:36:46;;;;;;;6.75;5.20;;;24.20;99.90;;;;;;5073654;28;20235;-65
2021/07/27 05:39:14;;;;;;;7.10;6.07;;;23.80;99.90;;;;;;5073527;28;20248;-66
2021/07/27 05:41:42;;;;;;;6.28;5.07;;;23.40;99.90;;;;;;5073171;28;20211;-66
2021/07/27 05:44:10;;;;;;;7.03;4.90;;;23.10;99.90;;;;;;5072987;28;20329;-65
2021/07/27 05:46:38;;;;;;;8.00;4.97;;;23.10;99.90;;;;;;5073166;28;20208;-65
2021/07/27 05:49:10;;;;;;;7.50;5.40;;;22.80;99.90;;;;;;5073469;28;20235;-65
2021/07/27 05:51:39;;;;;;;5.32;4.82;;;22.60;99.90;;;;;;5073207;28;20284;-63
2021/07/27 05:54:07;;;;;;;6.25;4.85;;;22.50;99.90;;;;;;5073021;28;20554;-64
2021/07/27 05:56:35;;;;;;;7.53;5.20;;;22.40;99.90;;;;;;5073140;28;20295;-64
2021/07/27 05:59:03;;;;;;;5.75;5.15;;;22.40;99.90;;;;;;5073154;28;20224;-64
2021/07/27 06:01:31;;;;;;;6.82;5.07;;;22.30;99.90;;;;;;5073105;28;20288;-65
2021/07/27 06:03:59;;;;;;;5.90;5.32;;;22.30;99.90;;;;;;5073093;28;20196;-65
2021/07/27 06:06:31;;;;;;;5.45;4.93;;;22.40;99.90;;;;;;5073056;28;20213;-64
2021/07/27 06:09:01;;;;;;;6.53;4.97;;;22.40;99.90;;;;;;5073078;28;20277;-65
2021/07/27 06:11:28;;;;;;;7.45;4.95;;;22.50;99.90;;;;;;5073197;28;20201;-64
2021/07/27 06:13:56;;;;;;;5.65;5.13;;;22.60;99.90;;;;;;5072721;28;20711;-66
2021/07/27 06:16:24;;;;;;;6.75;4.70;;;22.70;99.90;;;;;;5072782;28;20296;-64
2021/07/27 06:18:53;;;;;;;5.97;5.13;;;22.70;99.90;;;;;;5072800;28;20204;-65
2021/07/27 06:21:21;;;;;;;5.70;5.07;;;22.70;99.90;;;;;;5072743;28;20319;-65
2021/07/27 06:23:50;;;;;;;5.75;4.68;;;22.80;99.90;;;;;;5072931;28;20296;-65
2021/07/27 06:26:18;;;;;;;6.35;4.93;;;22.80;99.90;;;;;;5072840;28;20292;-65
2021/07/27 06:28:46;;;;;;;5.63;5.05;;;22.90;99.90;;;;;;5072622;28;20311;-64
2021/07/27 06:31:13;;;;;;;6.95;4.90;;;22.90;99.90;;;;;;5072785;28;20239;-64
2021/07/27 06:33:43;;;;;;;6.03;4.95;;;22.90;99.90;;;;;;5072858;28;20307;-65
2021/07/27 06:36:11;;;;;;;6.35;4.85;;;23.00;99.90;;;;;;5072630;28;20210;-64
2021/07/27 06:38:40;;;;;;;5.35;4.85;;;23.10;99.90;;;;;;5072656;28;20299;-63
2021/07/27 06:41:11;;;;;;;5.43;4.80;;;23.20;99.90;;;;;;5072020;28;20217;-64
2021/07/27 06:43:42;;;;;;;5.13;4.55;;;23.20;99.90;;;;;;5071673;28;20239;-65
2021/07/27 06:46:10;;;;;;;5.03;4.60;;;23.30;99.90;;;;;;5072063;28;20283;-64
2021/07/27 06:48:39;;;;;;;5.70;5.18;;;23.30;99.90;;;;;;5071900;28;20208;-64
2021/07/27 06:51:11;;;;;;;7.70;4.88;;;23.40;99.90;;;;;;5072047;28;20288;-64
2021/07/27 06:53:40;;;;;;;5.40;4.90;;;23.40;99.90;;;;;;5051676;28;20705;-64
2021/07/27 06:56:10;;;;;;;6.22;5.00;;;23.40;99.90;;;;;;5052062;28;20319;-64
2021/07/27 06:58:40;;;;;;;5.45;4.95;;;23.40;99.90;;;;;;5051691;28;20185;-66
2021/07/27 07:01:09;;;;;;;5.22;4.70;;;23.50;99.90;;;;;;5051614;28;20213;-64
2021/07/27 07:03:39;;;;;;;7.57;5.07;;;23.50;99.90;;;;;;5051881;28;20209;-65
2021/07/27 07:06:07;;;;;;;5.55;4.82;;;23.50;99.90;;;;;;5051647;28;20216;-65
2021/07/27 07:08:35;;;;;;;5.47;4.93;;;23.50;99.90;;;;;;5051680;28;20205;-67
2021/07/27 07:11:04;;;;;;;5.47;4.57;;;23.60;99.90;;;;;;5051944;28;20197;-65
2021/07/27 07:13:34;;;;;;;5.10;4.60;;;23.60;99.90;;;;;;5051809;28;20256;-64
2021/07/27 07:16:08;;;;;;;7.90;4.60;;;23.60;99.90;;;;;;5051920;28;20185;-65
2021/07/27 07:18:36;;;;;;;6.13;4.80;;;23.50;99.90;;;;;;5051631;28;20186;-65
2021/07/27 07:21:05;;;;;;;5.43;4.70;;;23.40;99.90;;;;;;5051317;28;20576;-64
2021/07/27 07:23:33;;;;;;;5.05;4.43;;;23.40;99.90;;;;;;5051894;28;20301;-64
2021/07/27 07:26:04;;;;;;;6.18;4.60;;;23.40;99.90;;;;;;5051418;28;20205;-66
2021/07/27 07:28:34;;;;;;;4.82;4.43;;;23.30;99.90;;;;;;5051359;28;20186;-65
2021/07/27 07:31:03;;;;;;;5.18;4.68;;;23.30;99.90;;;;;;5051793;28;20193;-65
2021/07/27 07:33:31;;;;;;;5.32;4.43;;;23.40;99.90;;;;;;5051640;28;20297;-67
2021/07/27 07:35:59;;;;;;;5.13;4.63;;;23.40;99.90;;;;;;5051496;28;20202;-64
2021/07/27 07:38:26;;;;;;;5.25;4.75;;;23.50;99.90;;;;;;5051670;28;20197;-68
2021/07/27 07:40:54;;;;;;;6.15;4.82;;;23.60;99.90;;;;;;5051238;28;20819;-65
2021/07/27 07:43:22;;;;;;;4.97;4.43;;;23.60;99.90;;;;;;5051190;28;20312;-65
2021/07/27 07:45:51;;;;;;;4.18;3.80;;;23.60;99.90;;;;;;5051600;28;20190;-65
2021/07/27 07:48:22;;;;;;;6.25;4.60;;;23.60;99.90;;;;;;5051684;28;20233;-65
2021/07/27 07:50:50;;;;;;;5.03;4.32;;;23.70;99.90;;;;;;5051316;28;20213;-66
2021/07/27 07:53:17;;;;;;;4.20;3.83;;;23.90;99.90;;;;;;5068482;28;20229;-64
2021/07/27 07:55:45;;;;;;;5.53;4.22;;;24.00;99.90;;;;;;5074654;28;20295;-65
2021/07/27 07:58:13;;;;;;;5.53;4.10;;;24.00;99.90;;;;;;5074900;28;20297;-65
2021/07/27 08:00:41;;;;;;;4.68;4.28;;;24.30;99.90;;;;;;5074643;28;20216;-65
2021/07/27 08:03:11;;;;;;;4.40;3.97;;;24.40;99.90;;;;;;5074714;28;20274;-66
2021/07/27 08:05:39;;;;;;;5.50;4.32;;;24.50;99.90;;;;;;5075004;28;20209;-64
2021/07/27 08:08:07;;;;;;;4.63;3.95;;;24.60;99.90;;;;;;5074649;28;20283;-64
2021/07/27 08:10:34;;;;;;;6.10;3.83;;;24.70;99.90;;;;;;5074712;28;20196;-64
2021/07/27 08:13:03;;;;;;;4.47;4.07;;;24.90;99.90;;;;;;5074830;28;20266;-64
2021/07/27 08:15:30;;;;;;;4.35;3.80;;;24.90;99.90;;;;;;5074646;28;20274;-64
2021/07/27 08:17:58;;;;;;;4.55;4.05;;;24.90;99.90;;;;;;5074790;28;20201;-64
2021/07/27 08:20:29;;;;;;;4.47;3.90;;;24.90;99.90;;;;;;5074410;28;20303;-65
2021/07/27 08:22:58;;;;;;;3.72;3.22;;;24.60;99.90;;;;;;5074536;28;20189;-65
2021/07/27 08:25:26;;;;;;;3.80;3.47;;;24.60;99.90;;;;;;5074232;28;20207;-64
2021/07/27 08:27:54;;;;;;;4.15;3.75;;;24.70;99.90;;;;;;5074522;28;20196;-64
2021/07/27 08:30:22;;;;;;;5.07;4.22;;;24.50;99.90;;;;;;5073976;28;20247;-66
2021/07/27 08:32:51;;;;;;;4.78;4.07;;;24.30;99.90;;;;;;5074018;28;20209;-64
2021/07/27 08:35:20;;;;;;;4.18;3.83;;;24.10;99.90;;;;;;5074012;28;20605;-63
2021/07/27 08:37:50;;;;;;;4.03;3.60;;;24.00;99.90;;;;;;5073759;28;20236;-65
2021/07/27 08:40:21;;;;;;;4.70;4.20;;;24.00;99.90;;;;;;5073929;28;20235;-65
2021/07/27 08:42:50;;;;;;;4.53;4.07;;;24.10;99.90;;;;;;5073787;28;20238;-64
2021/07/27 08:45:18;;;;;;;6.18;3.92;;;24.10;99.90;;;;;;5073935;28;20219;-66
2021/07/27 08:47:47;;;;;;;4.97;3.63;;;24.10;99.90;;;;;;5073702;28;20211;-64
2021/07/27 08:50:16;;;;;;;5.15;3.85;;;24.20;99.90;;;;;;5073550;28;20204;-67
2021/07/27 08:52:43;;;;;;;3.78;3.47;;;24.50;99.90;;;;;;5073601;28;20197;-65
2021/07/27 08:55:14;;;;;;;6.45;4.00;;;24.60;99.90;;;;;;5073709;28;20639;-65
2021/07/27 08:57:47;;;;;;;4.38;3.63;;;24.60;99.90;;;;;;5073751;28;20216;-65
2021/07/27 09:00:16;;;;;;;4.53;3.50;;;24.60;99.90;;;;;;5073682;28;20288;-65
2021/07/27 09:02:43;;;;;;;4.15;3.75;;;24.70;99.90;;;;;;5073567;28;20926;-65
2021/07/27 09:05:12;;;;;;;4.00;3.63;;;24.60;99.90;;;;;;5072878;28;20244;-65
2021/07/27 09:07:41;;;;;;;4.35;3.42;;;24.40;99.90;;;;;;5073254;28;20637;-64
2021/07/27 09:10:16;;;;;;;4.10;3.50;;;24.40;99.90;;;;;;5076724;28;20236;-65
2021/07/27 09:12:54;;;;;;;4.40;3.45;;;24.60;99.90;;;;;;5077748;28;20177;-65
2021/07/27 09:15:23;;;;;;;5.20;3.58;;;24.80;99.90;;;;;;5079225;28;20240;-65
2021/07/27 09:17:53;;;;;;;3.95;3.55;;;24.80;99.90;;;;;;5073728;28;20201;-65
2021/07/27 09:20:33;;;;;;;4.07;3.53;;;25.00;99.90;;;;;;5073542;28;20285;-66
2021/07/27 09:23:03;;;;;;;5.72;3.78;;;25.10;99.90;;;;;;5072985;28;20212;-66
2021/07/27 09:25:34;;;;;;;4.20;3.80;;;25.20;99.90;;;;;;5073223;28;20211;-65
2021/07/27 09:28:08;;;;;;;4.22;3.55;;;25.20;99.90;;;;;;5073396;28;20185;-64
2021/07/27 09:30:37;;;;;;;4.35;3.58;;;25.20;99.90;;;;;;5073221;28;20276;-64
2021/07/27 09:33:06;;;;;;;4.75;3.70;;;25.30;99.90;;;;;;5073186;28;20223;-65
2021/07/27 09:35:35;;;;;;;4.88;3.72;;;25.40;99.90;;;;;;5072739;28;20299;-65
2021/07/27 09:38:08;;;;;;;4.35;3.70;;;25.30;99.90;;;;;;5072982;28;20192;-64
2021/07/27 09:40:48;;;;;;;3.83;3.53;;;25.20;99.90;;;;;;5072796;28;20737;-65
2021/07/27 09:43:34;;;;;;;4.78;3.83;;;24.90;99.90;;;;;;5072581;28;20229;-65
2021/07/27 09:46:02;;;;;;;4.30;3.90;;;24.70;99.90;;;;;;5072768;28;20733;-63
2021/07/27 09:48:30;;;;;;;4.53;3.60;;;24.70;99.90;;;;;;5072974;28;20205;-64
2021/07/27 09:50:59;;;;;;;4.57;3.53;;;24.80;99.90;;;;;;5072748;28;20201;-64
2021/07/27 09:53:27;;;;;;;6.63;3.58;;;24.90;99.90;;;;;;5072587;28;20197;-64
2021/07/27 09:55:57;;;;;;;3.55;3.25;;;25.00;99.90;;;;;;5072573;28;20279;-65
2021/07/27 09:58:27;;;;;;;3.60;3.30;;;25.20;99.90;;;;;;5072526;28;20192;-65
2021/07/27 10:00:58;;;;;;;4.55;3.50;;;25.40;99.90;;;;;;5072753;28;20209;-65
2021/07/27 10:03:29;;;;;;;4.60;3.47;;;25.50;99.90;;;;;;5072038;28;20541;-65
2021/07/27 10:06:00;;;;;;;3.97;3.60;;;25.50;99.90;;;;;;5072302;28;20188;-65
2021/07/27 10:08:29;;;;;;;3.85;3.47;;;25.50;99.90;;;;;;5072282;28;20659;-65
2021/07/27 10:11:10;;;;;;;3.95;3.53;;;25.50;99.90;;;;;;5072181;28;20292;-64
2021/07/27 10:13:40;;;;;;;3.60;3.30;;;25.70;99.90;;;;;;5072474;28;20185;-65
2021/07/27 10:16:20;;;;;;;3.60;3.30;;;25.80;99.90;;;;;;5072620;28;20192;-66
2021/07/27 10:18:49;;;;;;;3.67;3.38;;;26.20;99.90;;;;;;5072115;28;20691;-65
2021/07/27 10:21:23;;;;;;;3.45;3.15;;;26.30;99.90;;;;;;5072049;28;20287;-65
2021/07/27 10:23:52;;;;;;;4.00;3.63;;;26.40;99.90;;;;;;5072470;28;20227;-65
2021/07/27 10:26:29;;;;;;;4.28;3.50;;;26.40;99.90;;;;;;5072382;28;20307;-64
2021/07/27 10:28:57;;;;;;;5.63;3.72;;;26.40;99.90;;;;;;5071864;28;20279;-64
2021/07/27 10:31:33;;;;;;;3.95;3.50;;;26.20;99.90;;;;;;5072181;28;20228;-65
2021/07/27 10:34:02;;;;;;;3.90;3.60;;;26.10;99.90;;;;;;5072138;28;20289;-65
2021/07/27 10:36:33;;;;;;;4.05;3.17;;;25.90;99.90;;;;;;5071965;28;20319;-64
2021/07/27 10:39:13;;;;;;;4.22;3.22;;;26.00;99.90;;;;;;5072174;28;20553;-64
2021/07/27 10:41:44;;;;;;;4.32;3.40;;;26.00;99.90;;;;;;5072003;28;20184;-65
2021/07/27 10:44:14;;;;;;;4.72;3.20;;;26.10;99.90;;;;;;5071597;28;20237;-64
2021/07/27 10:46:44;;;;;;;6.82;3.33;;;26.10;99.90;;;;;;5072145;28;20204;-67
2021/07/27 10:49:17;;;;;;;3.95;3.63;;;26.20;99.90;;;;;;5071976;28;20242;-65
2021/07/27 10:51:47;;;;;;;2.95;2.75;;;26.30;99.90;;;;;;5071570;28;20542;-65
2021/07/27 10:54:16;;;;;;;4.38;3.60;;;26.60;99.90;;;;;;5071934;28;20228;-65
2021/07/27 10:56:59;;;;;;;3.65;3.35;;;26.60;99.90;;;;;;5071863;28;20287;-64
2021/07/27 10:59:31;;;;;;;5.03;3.17;;;26.50;99.90;;;;;;5071591;28;20272;-65
2021/07/27 11:01:59;;;;;;;3.92;3.60;;;26.50;99.90;;;;;;5071753;28;20606;-65
2021/07/27 11:04:28;;;;;;;5.18;3.58;;;26.40;99.90;;;;;;5071876;28;20204;-66
2021/07/27 11:07:08;;;;;;;3.75;3.45;;;26.30;99.90;;;;;;5071759;28;20701;-65
2021/07/27 11:09:46;;;;;;;3.38;3.08;;;26.10;99.90;;;;;;5071781;28;20189;-65
2021/07/27 11:12:28;;;;;;;5.60;3.83;;;26.10;99.90;;;;;;5071612;28;20191;-65
2021/07/27 11:15:10;;;;;;;3.97;3.65;;;26.10;99.90;;;;;;5071797;28;20185;-64
2021/07/27 11:17:42;;;;;;;5.38;3.58;;;26.30;99.90;;;;;;5071514;28;20710;-65
2021/07/27 11:20:13;;;;;;;6.20;4.15;;;26.40;99.90;;;;;;5071867;28;20182;-64
2021/07/27 11:22:43;;;;;;;3.70;3.38;;;26.50;99.90;;;;;;5071715;28;20229;-65
2021/07/27 11:25:12;;;;;;;4.03;3.67;;;26.70;99.90;;;;;;5071822;28;20268;-64
2021/07/27 11:27:41;;;;;;;5.30;3.80;;;26.80;99.90;;;;;;5071433;28;20259;-64
2021/07/27 11:30:12;;;;;;;5.38;3.33;;;27.10;99.90;;;;;;5074313;28;20255;-64
2021/07/27 11:32:42;;;;;;;4.10;3.55;;;27.20;99.90;;;;;;5075624;28;20185;-64
2021/07/27 11:35:11;;;;;;;3.67;3.38;;;27.50;99.90;;;;;;5074905;28;20794;-65
2021/07/27 11:37:40;;;;;;;4.13;3.72;;;27.50;99.90;;;;;;5075333;28;20312;-65
2021/07/27 11:40:21;;;;;;;3.55;3.25;;;27.20;99.90;;;;;;5075059;28;20635;-64
2021/07/27 11:43:00;;;;;;;4.10;3.20;;;27.10;99.90;;;;;;5075243;28;20200;-64
2021/07/27 11:45:28;;;;;;;3.83;3.42;;;26.90;99.90;;;;;;5074987;28;20200;-63
2021/07/27 11:47:56;;;;;;;5.22;4.00;;;26.70;99.90;;;;;;5074968;28;20239;-63
2021/07/27 11:50:27;;;;;;;4.22;3.85;;;26.50;99.90;;;;;;5075167;28;20201;-65
2021/07/27 11:52:59;;;;;;;3.72;3.40;;;26.40;99.90;;;;;;5074556;28;20207;-65
2021/07/27 11:55:31;;;;;;;7.05;3.85;;;26.40;99.90;;;;;;5075029;28;20207;-64
2021/07/27 11:58:01;;;;;;;4.40;3.80;;;26.40;99.90;;;;;;5074792;28;20694;-64
2021/07/27 12:00:30;;;;;;;4.03;3.72;;;26.40;99.90;;;;;;5074902;28;20207;-64
2021/07/27 12:02:59;;;;;;;4.88;3.63;;;26.50;99.90;;;;;;5074543;28;20220;-64
2021/07/27 12:05:27;;;;;;;3.95;3.63;;;26.70;99.90;;;;;;5074687;28;20664;-65
2021/07/27 12:07:54;;;;;;;4.85;3.63;;;27.10;99.90;;;;;;5074811;28;20200;-65
2021/07/27 12:10:22;;;;;;;4.13;3.83;;;27.40;99.90;;;;;;5074749;28;20196;-65
2021/07/27 12:12:50;;;;;;;3.97;3.60;;;27.30;99.90;;;;;;5074605;28;20296;-65
2021/07/27 12:15:19;;;;;;;4.82;3.90;;;27.10;99.90;;;;;;5074731;28;20231;-64
2021/07/27 12:17:47;;;;;;;3.97;3.58;;;27.00;99.90;;;;;;5074734;28;20206;-64
2021/07/27 12:20:15;;;;;;;4.05;3.75;;;27.00;99.90;;;;;;5074690;28;20204;-65
2021/07/27 12:22:43;;;;;;;4.88;4.07;;;26.70;99.90;;;;;;5074474;28;20278;-65
2021/07/27 12:25:12;;;;;;;4.00;3.65;;;26.80;99.90;;;;;;5074608;28;20197;-64
2021/07/27 12:27:40;;;;;;;4.10;3.75;;;26.90;99.90;;;;;;5074270;28;20704;-65
2021/07/27 12:30:09;;;;;;;4.70;4.00;;;26.90;99.90;;;;;;5074087;28;20236;-63
2021/07/27 12:32:38;;;;;;;4.40;4.07;;;26.80;99.90;;;;;;5074573;28;20241;-65
2021/07/27 12:35:10;;;;;;;4.25;3.85;;;26.60;99.90;;;;;;5074050;28;20635;-65
2021/07/27 12:37:38;;;;;;;4.13;3.75;;;26.40;99.90;;;;;;5074186;28;20288;-64
2021/07/27 12:40:07;;;;;;;4.53;4.13;;;26.40;99.90;;;;;;5074074;28;20251;-63
2021/07/27 12:42:35;;;;;;;4.45;4.05;;;26.30;99.90;;;;;;5074186;28;20243;-66
2021/07/27 12:45:03;;;;;;;4.82;4.00;;;26.40;99.90;;;;;;5073575;28;20807;-64
2021/07/27 12:47:31;;;;;;;3.72;3.42;;;26.50;99.90;;;;;;5074195;28;20201;-64
2021/07/27 12:50:00;;;;;;;4.05;3.75;;;26.80;99.90;;;;;;5073825;28;20291;-65
2021/07/27 12:52:28;;;;;;;4.80;3.38;;;27.00;99.90;;;;;;5073914;28;20287;-65
2021/07/27 12:54:57;;;;;;;4.03;3.72;;;27.00;99.90;;;;;;5073896;28;20197;-64
2021/07/27 12:57:24;;;;;;;4.40;3.90;;;27.10;99.90;;;;;;5073660;28;20291;-64
2021/07/27 12:59:52;;;;;;;4.20;3.58;;;27.10;99.90;;;;;;5073789;28;20292;-64
2021/07/27 13:02:22;;;;;;;4.20;3.83;;;27.10;99.90;;;;;;5073910;28;20222;-64
2021/07/27 13:04:51;;;;;;;4.65;4.13;;;27.20;99.90;;;;;;5073720;28;20236;-65
2021/07/27 13:07:21;;;;;;;4.22;3.83;;;27.40;99.90;;;;;;5073221;28;20205;-65
2021/07/27 13:09:48;;;;;;;4.50;4.10;;;27.40;99.90;;;;;;5073596;28;20251;-65
2021/07/27 13:12:16;;;;;;;4.13;3.80;;;27.40;99.90;;;;;;5073197;28;20729;-64
2021/07/27 13:14:44;;;;;;;4.43;4.03;;;27.50;99.90;;;;;;5073306;28;20207;-64
2021/07/27 13:17:12;;;;;;;4.68;4.20;;;27.30;99.90;;;;;;5073564;28;20200;-65